Nearby METAR Reports

 

KRYN - Tucson/Ryan Fld, Arizona, USA
Distance from station: SSW 16mi, 26km
Updated: Sun, 17-Dec-2017 7:45am MST
Few Clouds
Few Clouds
 Wind from N
Wind: N 10 mph , 17 km/h
Temperature: 45°F , 7°C
Wind Chill: 40°F , 4°C
Dew Point: 43°F , 6°C
Humidity: 93%
Barometer: 29.89 inHg , 1012.2 hPa
Clouds: Few Clouds
Visibility: 10 miles , 16 km
Cloud details: Few Clouds 1700 ft
Few Clouds 4400 ft
2017/12/17 14:45 KRYN 171445Z 36009KT 10SM FEW017 FEW044 07/06 A2989
KTUS - Tucson, Arizona, USA
Distance from station: SSE 18mi, 28km
Updated: Sun, 17-Dec-2017 7:53am MST
Overcast
Overcast
 Wind from NE
Wind: NE 9 mph , 15 km/h
Temperature: 46°F , 8°C
Wind Chill: 41°F , 5°C
Dew Point: 45°F , 7°C
Humidity: 93%
Barometer: 29.91 inHg , 1012.9 hPa
Clouds: Overcast
Visibility: 10 miles , 16 km
Cloud details: Few Clouds 4900 ft
Mostly cloudy 5500 ft
Overcast 7500 ft
2017/12/17 14:53 KTUS 171453Z 05008KT 10SM FEW049 BKN055 OVC075 08/07 A2991 RMK AO2 PK WND 19030/1354 SLP110 6//// T00780067 $
 
KDMA - Davis/Tucson, Arizona, USA
Distance from station: SE 18mi, 29km
Updated: Sun, 17-Dec-2017 8:25am MST
Light rain, Overcast
Light rain, Overcast
 Wind from NE
Wind: NE 8 mph , 13 km/h
Temperature: 46°F , 8°C
Wind Chill: 42°F , 6°C
Dew Point: 43°F , 6°C
Humidity: 87%
Barometer: 29.91 inHg , 1012.9 hPa
Summary: Light rain
Clouds: Overcast
Visibility: 10 miles , 16 km
Cloud details: Few Clouds 600 ft
Partly cloudy 3700 ft
Mostly cloudy 4500 ft
Overcast 6000 ft
2017/12/17 15:25 KDMA 171525Z AUTO 04007KT 10SM -RA FEW006 SCT037 BKN045 OVC060 08/06 A2991 RMK AO2 RAB25 SLPNO $
KCGZ - Casa Granda, Arizona, USA
Distance from station: NW 57mi, 92km
Updated: Sat, 16-Sep-2017 8:56pm MST
NOT Current
Clear
Clear
 Wind from W
Wind: W 8 mph , 13 km/h
Temperature: 84°F , 29°C
Dew Point: 46°F , 8°C
Humidity: 27%
Barometer: 29.83 inHg , 1010.2 hPa
Clouds: Clear
Visibility: 10 miles , 16 km
2017/09/17 03:56 KCGZ 170356Z AUTO 27007KT 10SM CLR 29/08 A2983 RMK AO2 SLP086 T02940083 PNO $
 
KALK - Pioneer Airfield, Arizona, USA
Distance from station: SE 65mi, 104km
Updated: Sun, 17-Dec-2017 8:31am MST
Rain, Mist, Overcast
Rain, Mist, Overcast
 Wind from SE
Wind: SE 12 mph , 19 km/h
Temperature: 39°F , 4°C
Wind Chill: 32°F , 0°C
Dew Point: 39°F , 4°C
Humidity: 100%
Barometer: 29.94 inHg , 1013.9 hPa
Summary: Rain, Mist
Clouds: Overcast
Visibility: 3 miles , 5 km
Cloud details: Partly cloudy 900 ft
Mostly cloudy 2600 ft
Overcast 3300 ft
2017/12/17 15:31 KALK 171531Z AUTO 13010KT 3SM RA BR SCT009 BKN026 OVC033 04/04 A2994 RMK AO2 P0004 T00440039
KOLS - Nogales, Arizona, USA
Distance from station: S 67mi, 108km
Updated: Sun, 17-Dec-2017 7:54am MST
Light rain, Mist, Overcast
Light rain, Mist, Overcast
 
Temperature: 43°F , 6°C
Dew Point: 41°F , 5°C
Humidity: 93%
Barometer: 29.89 inHg , 1012.2 hPa
Summary: Light rain, Mist
Clouds: Overcast
Visibility: 6 miles , 10 km
Cloud details: Few Clouds 1600 ft
Partly cloudy 2900 ft
Overcast 3500 ft
2017/12/17 14:54 KOLS 171454Z AUTO 6SM -RA BR FEW016 SCT029 OVC035 06/05 A2989 RMK AO2 SLP093 P0017 60037 T00610050 51019 $
 
KFHU - Fort Huachuca, Arizona, USA
Distance from station: SE 69mi, 110km
Updated: Sun, 17-Dec-2017 8:18am MST
Light rain, Mist, Overcast
Light rain, Mist, Overcast
 Wind from SE
Wind: SE 7 mph , 11 km/h
Temperature: 41°F , 5°C
Wind Chill: 36°F , 2°C
Dew Point: 39°F , 4°C
Humidity: 93%
Barometer: 29.93 inHg , 1013.5 hPa
Summary: Light rain, Mist
Clouds: Overcast
Visibility: 3 miles , 5 km
Cloud details: Mostly cloudy 500 ft
Overcast 2100 ft
2017/12/17 15:18 KFHU 171518Z AUTO 13006KT 3SM -RA BR BKN005 OVC021 05/04 A2993 RMK AO2 CIG 005V007 SLPNO
KIWA - Chandler/Mesa, Arizona, USA
Distance from station: NNW 73mi, 117km
Updated: Sun, 17-Dec-2017 7:51am MST
Overcast
Overcast
 Wind from NNE
Wind: NNE 13 mph , 20 km/h, Gust: 22 mph , 35 km/h
Temperature: 52°F , 11°C
Dew Point: 43°F , 6°C
Humidity: 72%
Barometer: 29.90 inHg , 1012.5 hPa
Clouds: Overcast
Visibility: 20 miles , 32 km
Cloud details: Partly cloudy 2000 ft
Mostly cloudy 7000 ft
Overcast 10000 ft
2017/12/17 14:51 KIWA 171451Z 03011G19KT 20SM SCT020 BKN070 OVC100 11/06 A2990